createdAt,value
2022-09-28T00:01:53.454Z,17.06
2022-09-28T00:04:22.205Z,17.04
2022-09-28T00:06:50.477Z,17.03
2022-09-28T00:09:19.012Z,17.02
2022-09-28T00:11:48.634Z,16.87
2022-09-28T00:14:17.087Z,16.99
2022-09-28T00:16:47.023Z,16.96
2022-09-28T00:19:15.819Z,16.67
2022-09-28T00:21:44.324Z,16.82
2022-09-28T00:24:16.085Z,16.49
2022-09-28T00:26:47.353Z,16.83
2022-09-28T00:29:22.491Z,16.84
2022-09-28T00:31:53.518Z,16.82
2022-09-28T00:34:22.107Z,16.82
2022-09-28T00:36:50.594Z,16.83
2022-09-28T00:39:19.357Z,16.83
2022-09-28T00:41:48.124Z,16.51
2022-09-28T00:44:43.742Z,16.80
2022-09-28T00:47:33.973Z,16.79
2022-09-28T00:50:07.044Z,16.76
2022-09-28T00:52:40.715Z,16.76
2022-09-28T00:55:13.186Z,16.78
2022-09-28T00:57:44.713Z,16.82
2022-09-28T01:00:16.835Z,16.83
2022-09-28T01:02:47.513Z,16.82
2022-09-28T01:05:17.836Z,16.80
2022-09-28T01:07:47.673Z,16.78
2022-09-28T01:10:16.535Z,16.79
2022-09-28T01:12:44.804Z,16.79
2022-09-28T01:15:13.454Z,16.77
2022-09-28T01:17:57.409Z,16.68
2022-09-28T01:20:55.893Z,16.68
2022-09-28T01:24:05.008Z,16.68
2022-09-28T01:26:48.708Z,16.72
2022-09-28T01:29:27.001Z,16.78
2022-09-28T01:32:08.671Z,16.80
2022-09-28T01:34:43.398Z,16.84
2022-09-28T01:37:16.143Z,16.91
2022-09-28T01:39:48.721Z,16.93
2022-09-28T01:42:23.166Z,16.96
2022-09-28T01:44:54.209Z,16.94
2022-09-28T01:47:25.807Z,16.95
2022-09-28T01:49:59.615Z,16.95
2022-09-28T01:52:34.057Z,16.96
2022-09-28T01:55:10.832Z,16.99
2022-09-28T01:57:44.226Z,17.02
2022-09-28T02:00:15.959Z,16.99
2022-09-28T02:02:49.884Z,17.00
2022-09-28T02:05:28.405Z,17.03
2022-09-28T02:08:00.974Z,17.06
2022-09-28T02:10:34.635Z,17.04
2022-09-28T02:13:09.931Z,16.86
2022-09-28T02:15:44.263Z,17.04
2022-09-28T02:18:12.918Z,17.05
2022-09-28T02:20:47.993Z,17.09
2022-09-28T02:23:18.141Z,17.09
2022-09-28T02:25:52.692Z,17.12
2022-09-28T02:28:23.696Z,17.17
2022-09-28T02:30:52.417Z,17.21
2022-09-28T02:33:26.050Z,17.10
2022-09-28T02:35:54.684Z,17.24
2022-09-28T02:38:24.943Z,17.29
2022-09-28T02:41:04.743Z,17.31
2022-09-28T02:43:49.507Z,17.30
2022-09-28T02:46:29.665Z,17.12
2022-09-28T02:49:21.697Z,17.30
2022-09-28T02:52:13.781Z,17.29
2022-09-28T02:55:12.748Z,17.30
2022-09-28T02:57:55.633Z,17.33
2022-09-28T03:00:25.696Z,17.34
2022-09-28T03:03:03.428Z,17.37
2022-09-28T03:05:45.395Z,17.33
2022-09-28T03:08:23.264Z,17.43
2022-09-28T03:10:57.220Z,17.45
2022-09-28T03:13:27.321Z,17.46
2022-09-28T03:16:12.368Z,17.50
2022-09-28T03:18:42.926Z,17.51
2022-09-28T03:21:12.891Z,17.56
2022-09-28T03:23:42.056Z,17.56
2022-09-28T03:26:12.054Z,17.60
2022-09-28T03:28:40.648Z,17.60
2022-09-28T03:31:13.807Z,17.60
2022-09-28T03:33:43.188Z,17.63
2022-09-28T03:36:14.686Z,17.52
2022-09-28T03:38:43.084Z,17.65
2022-09-28T03:41:12.493Z,17.64
2022-09-28T03:43:43.582Z,17.70
2022-09-28T03:46:15.836Z,17.72
2022-09-28T03:48:48.952Z,17.75
2022-09-28T03:51:17.608Z,17.78
2022-09-28T03:53:45.875Z,17.82
2022-09-28T03:56:16.194Z,17.81
2022-09-28T03:58:44.539Z,17.77
2022-09-28T04:01:18.683Z,17.79
2022-09-28T04:03:49.096Z,17.79
2022-09-28T04:06:17.850Z,17.56
2022-09-28T04:08:46.084Z,17.79
2022-09-28T04:11:15.883Z,17.81
2022-09-28T04:13:44.589Z,17.81
2022-09-28T04:16:17.951Z,17.79
2022-09-28T04:18:55.058Z,17.75
2022-09-28T04:21:55.538Z,17.72
2022-09-28T04:24:23.987Z,17.74
2022-09-28T04:27:12.880Z,17.73
2022-09-28T04:29:43.979Z,17.72
2022-09-28T04:32:15.230Z,17.78
2022-09-28T04:34:44.473Z,17.80
2022-09-28T04:37:13.525Z,17.81
2022-09-28T04:39:45.086Z,17.69
2022-09-28T04:42:17.972Z,17.75
2022-09-28T04:44:47.878Z,17.60
2022-09-28T04:47:17.578Z,17.66
2022-09-28T04:50:20.926Z,17.56
2022-09-28T04:53:13.057Z,17.52
2022-09-28T04:55:41.329Z,17.48
2022-09-28T04:58:09.564Z,17.45
2022-09-28T05:00:38.530Z,17.43
2022-09-28T05:03:37.201Z,17.40
2022-09-28T05:06:16.759Z,17.38
2022-09-28T05:08:47.323Z,17.36
2022-09-28T05:11:16.800Z,17.29
2022-09-28T05:13:46.986Z,17.31
2022-09-28T05:16:18.163Z,17.29
2022-09-28T05:19:07.846Z,17.26
2022-09-28T05:21:36.118Z,16.95
2022-09-28T05:24:07.708Z,17.25
2022-09-28T05:26:38.583Z,17.24
2022-09-28T05:29:08.628Z,17.25
2022-09-28T05:31:55.732Z,17.21
2022-09-28T05:34:48.780Z,17.18
2022-09-28T05:37:23.413Z,17.05
2022-09-28T05:39:51.897Z,17.11
2022-09-28T05:42:20.201Z,17.10
2022-09-28T05:44:48.557Z,17.07
2022-09-28T05:47:16.845Z,17.09
2022-09-28T05:49:45.723Z,17.07
2022-09-28T05:52:15.638Z,17.08
2022-09-28T05:54:44.205Z,16.89
2022-09-28T05:57:12.408Z,17.01
2022-09-28T05:59:40.674Z,16.98
2022-09-28T06:02:08.980Z,16.96
2022-09-28T06:04:37.468Z,16.97
2022-09-28T06:07:06.674Z,17.00
2022-09-28T06:09:37.473Z,16.47
2022-09-28T06:12:24.078Z,17.16
2022-09-28T06:14:58.064Z,17.16
2022-09-28T06:17:26.545Z,17.32
2022-09-28T06:20:15.012Z,17.37
2022-09-28T06:23:09.615Z,17.39
2022-09-28T06:25:39.818Z,17.43
2022-09-28T06:28:11.073Z,17.45
2022-09-28T06:30:41.116Z,17.50
2022-09-28T06:33:14.453Z,17.42
2022-09-28T06:35:42.805Z,17.09
2022-09-28T06:38:11.437Z,17.79
2022-09-28T06:40:41.248Z,17.91
2022-09-28T06:43:12.625Z,18.06
2022-09-28T06:45:59.423Z,18.15
2022-09-28T06:48:44.343Z,18.28
2022-09-28T06:51:33.292Z,18.35
2022-09-28T06:54:22.777Z,18.45
2022-09-28T06:57:00.596Z,18.50
2022-09-28T06:59:31.485Z,18.55
2022-09-28T07:02:01.640Z,18.64
2022-09-28T07:04:44.908Z,18.76
2022-09-28T07:07:14.330Z,18.90
2022-09-28T07:09:50.348Z,18.97
2022-09-28T07:12:26.416Z,19.08
2022-09-28T07:14:59.133Z,19.16
2022-09-28T07:17:29.790Z,19.24
2022-09-28T07:20:14.811Z,19.33
2022-09-28T07:22:45.329Z,19.44
2022-09-28T07:25:19.501Z,19.54
2022-09-28T07:27:59.759Z,19.70
2022-09-28T07:30:46.554Z,19.83
2022-09-28T07:33:41.057Z,19.96
2022-09-28T07:36:29.215Z,20.09
2022-09-28T07:38:57.689Z,20.21
2022-09-28T07:41:32.669Z,20.33
2022-09-28T07:44:06.669Z,20.61
2022-09-28T07:46:37.933Z,20.83
2022-09-28T07:49:12.592Z,21.07
2022-09-28T07:51:58.674Z,21.26
2022-09-28T07:54:30.425Z,21.38
2022-09-28T07:57:15.380Z,21.40
2022-09-28T08:00:09.009Z,21.47
2022-09-28T08:02:44.692Z,21.52
2022-09-28T08:05:17.231Z,21.56
2022-09-28T08:07:45.573Z,21.54
2022-09-28T08:10:14.283Z,21.56
2022-09-28T08:12:59.137Z,21.58
2022-09-28T08:16:05.326Z,21.60
2022-09-28T08:18:39.582Z,21.62
2022-09-28T08:21:25.968Z,21.65
2022-09-28T08:23:54.429Z,21.72
2022-09-28T08:26:22.665Z,21.80
2022-09-28T08:28:51.372Z,21.90
2022-09-28T08:31:50.453Z,22.11
2022-09-28T08:34:42.817Z,22.12
2022-09-28T08:37:55.519Z,22.35
2022-09-28T08:40:51.713Z,22.52
2022-09-28T08:43:48.950Z,22.76
2022-09-28T08:46:30.546Z,22.87
2022-09-28T08:49:31.130Z,22.86
2022-09-28T08:52:23.653Z,22.86
2022-09-28T08:55:15.238Z,22.80
2022-09-28T08:57:50.879Z,22.78
2022-09-28T09:00:23.000Z,22.77
2022-09-28T09:02:51.468Z,22.64
2022-09-28T09:05:29.498Z,22.54
2022-09-28T09:08:17.235Z,22.49
2022-09-28T09:10:53.925Z,22.42
2022-09-28T09:13:53.447Z,22.41
2022-09-28T09:16:37.059Z,22.35
2022-09-28T09:19:35.647Z,22.32
2022-09-28T09:22:19.238Z,22.34
2022-09-28T09:24:51.336Z,22.38
2022-09-28T09:27:39.618Z,22.38
2022-09-28T09:30:12.961Z,22.28
2022-09-28T09:33:05.196Z,22.24
2022-09-28T09:36:06.792Z,22.09
2022-09-28T09:39:25.542Z,22.05
2022-09-28T09:42:31.040Z,22.14
2022-09-28T09:45:32.451Z,22.15
2022-09-28T09:48:39.612Z,22.15
2022-09-28T09:51:17.845Z,22.14
2022-09-28T09:53:52.448Z,22.21
2022-09-28T09:56:28.257Z,22.28
2022-09-28T09:59:12.754Z,22.33
2022-09-28T10:01:59.896Z,22.31
2022-09-28T10:04:49.763Z,22.27
2022-09-28T10:07:33.033Z,22.26
2022-09-28T10:10:04.241Z,22.33
2022-09-28T10:12:49.665Z,22.35
2022-09-28T10:15:24.071Z,22.40
2022-09-28T10:18:14.199Z,22.41
2022-09-28T10:21:02.710Z,22.40
2022-09-28T10:23:59.800Z,22.38
2022-09-28T10:26:35.912Z,22.41
2022-09-28T10:29:13.230Z,22.41
2022-09-28T10:31:43.516Z,22.45
2022-09-28T10:34:20.259Z,22.54
2022-09-28T10:36:53.119Z,22.65
2022-09-28T10:39:32.408Z,22.73
2022-09-28T10:42:03.778Z,22.81
2022-09-28T10:44:36.727Z,22.88
2022-09-28T10:47:20.803Z,22.85
2022-09-28T10:49:51.257Z,23.14
2022-09-28T10:52:45.072Z,23.29
2022-09-28T10:55:32.404Z,23.23
2022-09-28T10:58:01.926Z,23.13
2022-09-28T11:00:42.975Z,23.02
2022-09-28T11:03:21.776Z,22.84
2022-09-28T11:05:58.286Z,22.79
2022-09-28T11:08:31.661Z,22.57
2022-09-28T11:11:05.114Z,22.32
2022-09-28T11:13:44.119Z,22.16
2022-09-28T11:16:31.463Z,21.98
2022-09-28T11:19:07.851Z,21.83
2022-09-28T11:21:44.261Z,21.82
2022-09-28T11:24:21.758Z,21.79
2022-09-28T11:26:54.144Z,21.72
2022-09-28T11:29:32.069Z,21.81
2022-09-28T11:32:27.094Z,21.76
2022-09-28T11:35:19.777Z,21.55
2022-09-28T11:38:10.724Z,21.72
2022-09-28T11:41:10.656Z,21.65
2022-09-28T11:43:56.816Z,21.91
2022-09-28T11:46:33.195Z,21.87
2022-09-28T11:49:26.416Z,21.87
2022-09-28T11:52:01.278Z,21.86
2022-09-28T11:54:38.059Z,21.95
2022-09-28T11:57:13.206Z,22.08
2022-09-28T11:59:59.032Z,22.25
2022-09-28T12:02:32.689Z,22.31
2022-09-28T12:05:20.661Z,22.27
2022-09-28T12:07:55.800Z,22.10
2022-09-28T12:10:49.558Z,22.36
2022-09-28T12:13:27.562Z,22.52
2022-09-28T12:16:27.657Z,22.64
2022-09-28T12:18:54.822Z,22.72
2022-09-28T12:21:37.981Z,22.81
2022-09-28T12:24:15.038Z,22.84
2022-09-28T12:26:48.404Z,22.91
2022-09-28T12:29:21.727Z,22.34
2022-09-28T12:31:58.771Z,22.77
2022-09-28T12:34:27.190Z,22.86
2022-09-28T12:37:21.895Z,22.82
2022-09-28T12:40:22.617Z,22.75
2022-09-28T12:43:11.280Z,22.71
2022-09-28T12:46:10.841Z,22.74
2022-09-28T12:52:04.217Z,23.19
2022-09-28T12:54:57.681Z,23.30
2022-09-28T12:57:40.504Z,23.35
2022-09-28T13:00:13.242Z,23.28
2022-09-28T13:03:20.909Z,23.20
2022-09-28T13:06:33.249Z,23.09
2022-09-28T13:09:16.889Z,23.12
2022-09-28T13:12:06.820Z,23.21
2022-09-28T13:15:10.960Z,23.30
2022-09-28T13:17:50.052Z,23.38
2022-09-28T13:20:39.131Z,23.41
2022-09-28T13:23:17.616Z,22.98
2022-09-28T13:25:52.228Z,23.55
2022-09-28T13:28:27.033Z,23.39
2022-09-28T13:33:35.820Z,23.74
2022-09-28T13:36:05.781Z,23.74
2022-09-28T13:38:55.414Z,23.93
2022-09-28T13:41:29.281Z,24.05
2022-09-28T13:44:25.317Z,24.13
2022-09-28T13:47:10.221Z,24.18
2022-09-28T13:49:49.620Z,24.16
2022-09-28T13:52:35.088Z,24.13
2022-09-28T13:55:17.600Z,24.08
2022-09-28T13:57:52.511Z,24.08
2022-09-28T14:00:27.538Z,24.01
2022-09-28T14:03:01.721Z,23.95
2022-09-28T14:05:45.649Z,23.96
2022-09-28T14:08:29.232Z,23.86
2022-09-28T14:10:58.375Z,23.79
2022-09-28T14:14:00.344Z,23.83
2022-09-28T14:16:34.738Z,23.75
2022-09-28T14:19:08.503Z,23.70
2022-09-28T14:21:55.989Z,23.60
2022-09-28T14:24:34.621Z,23.56
2022-09-28T14:27:24.564Z,23.40
2022-09-28T14:30:06.533Z,23.41
2022-09-28T14:32:38.268Z,23.38
2022-09-28T14:35:08.678Z,22.62
2022-09-28T14:37:56.861Z,23.04
2022-09-28T14:40:49.830Z,23.27
2022-09-28T14:43:28.625Z,23.22
2022-09-28T14:46:29.648Z,23.15
2022-09-28T14:49:03.248Z,23.09
2022-09-28T14:52:03.252Z,23.02
2022-09-28T14:55:00.886Z,22.96
2022-09-28T14:57:32.464Z,22.59
2022-09-28T15:00:01.757Z,22.76
2022-09-28T15:02:34.202Z,22.67
2022-09-28T15:05:15.756Z,22.57
2022-09-28T15:07:48.284Z,22.51
2022-09-28T15:10:27.662Z,22.45
2022-09-28T15:12:57.282Z,22.39
2022-09-28T15:15:38.642Z,22.35
2022-09-28T15:18:27.664Z,22.16
2022-09-28T15:20:57.452Z,22.24
2022-09-28T15:23:28.804Z,22.19
2022-09-28T15:25:57.146Z,22.16
2022-09-28T15:28:26.033Z,22.13
2022-09-28T15:31:01.514Z,22.09
2022-09-28T15:33:49.356Z,21.92
2022-09-28T15:36:22.644Z,21.73
2022-09-28T15:38:57.671Z,21.67
2022-09-28T15:44:08.580Z,21.52
2022-09-28T15:46:39.057Z,21.45
2022-09-28T15:49:09.538Z,21.44
2022-09-28T15:51:52.424Z,21.38
2022-09-28T15:54:25.448Z,21.32
2022-09-28T15:56:57.880Z,21.42
2022-09-28T15:59:32.054Z,21.44
2022-09-28T16:02:23.101Z,21.42
2022-09-28T16:04:54.239Z,21.39
2022-09-28T16:07:32.286Z,21.49
2022-09-28T16:10:07.202Z,21.36
2022-09-28T16:12:46.663Z,21.50
2022-09-28T16:15:21.472Z,21.44
2022-09-28T16:17:55.366Z,21.32
2022-09-28T16:20:29.284Z,21.43
2022-09-28T16:23:05.811Z,21.42
2022-09-28T16:25:37.226Z,21.43
2022-09-28T16:28:06.861Z,21.41
2022-09-28T16:30:36.118Z,21.36
2022-09-28T16:33:06.802Z,21.30
2022-09-28T16:35:51.297Z,21.29
2022-09-28T16:38:21.401Z,21.29
2022-09-28T16:40:50.819Z,21.31
2022-09-28T16:43:26.970Z,21.29
2022-09-28T16:45:57.623Z,21.22
2022-09-28T16:48:28.179Z,21.12
2022-09-28T16:50:56.489Z,21.07
2022-09-28T16:53:44.552Z,20.96
2022-09-28T16:56:13.766Z,20.88
2022-09-28T16:58:42.586Z,20.81
2022-09-28T17:01:13.089Z,20.77
2022-09-28T17:03:44.329Z,20.71
2022-09-28T17:06:13.638Z,20.65
2022-09-28T17:08:43.200Z,20.63
2022-09-28T17:11:18.175Z,20.53
2022-09-28T17:13:51.910Z,20.54
2022-09-28T17:16:37.286Z,20.54
2022-09-28T17:19:19.953Z,20.46
2022-09-28T17:21:48.956Z,20.38
2022-09-28T17:24:18.889Z,20.33
2022-09-28T17:26:49.119Z,20.20
2022-09-28T17:29:17.612Z,20.14
2022-09-28T17:31:46.757Z,20.09
2022-09-28T17:34:16.752Z,20.07
2022-09-28T17:36:46.709Z,20.01
2022-09-28T17:39:17.902Z,19.96
2022-09-28T17:41:47.957Z,19.93
2022-09-28T17:44:16.604Z,19.91
2022-09-28T17:46:48.724Z,19.91
2022-09-28T17:49:17.888Z,19.85
2022-09-28T17:51:46.057Z,19.82
2022-09-28T17:54:16.923Z,19.78
2022-09-28T17:56:46.261Z,19.80
2022-09-28T17:59:18.589Z,19.00
2022-09-28T18:01:48.445Z,19.75
2022-09-28T18:04:39.711Z,19.77
2022-09-28T18:07:05.635Z,19.71
2022-09-28T18:09:33.773Z,19.71
2022-09-28T18:12:05.320Z,19.68
2022-09-28T18:14:35.910Z,19.70
2022-09-28T18:17:04.501Z,19.64
2022-09-28T18:19:32.775Z,19.59
2022-09-28T18:22:01.601Z,19.58
2022-09-28T18:24:29.962Z,19.54
2022-09-28T18:26:58.211Z,19.56
2022-09-28T18:29:29.891Z,19.52
2022-09-28T18:32:02.671Z,19.55
2022-09-28T18:34:30.953Z,19.46
2022-09-28T18:36:59.136Z,19.42
2022-09-28T18:39:27.738Z,19.39
2022-09-28T18:41:56.073Z,19.42
2022-09-28T18:44:25.587Z,19.42
2022-09-28T18:46:54.485Z,19.44
2022-09-28T18:49:25.054Z,19.41
2022-09-28T18:51:53.311Z,19.37
2022-09-28T18:54:21.576Z,19.37
2022-09-28T18:56:51.331Z,19.34
2022-09-28T18:59:19.594Z,19.28
2022-09-28T19:01:47.821Z,19.23
2022-09-28T19:04:16.409Z,19.19
2022-09-28T19:06:50.477Z,19.14
2022-09-28T19:09:21.194Z,19.10
2022-09-28T19:11:50.237Z,19.08
2022-09-28T19:14:19.544Z,19.07
2022-09-28T19:16:47.816Z,18.95
2022-09-28T19:19:18.476Z,19.04
2022-09-28T19:21:48.589Z,18.91
2022-09-28T19:24:20.918Z,19.00
2022-09-28T19:26:49.897Z,18.93
2022-09-28T19:29:19.129Z,18.90
2022-09-28T19:31:47.664Z,18.89
2022-09-28T19:34:16.021Z,18.84
2022-09-28T19:36:45.769Z,18.84
2022-09-28T19:39:16.407Z,18.80
2022-09-28T19:41:49.623Z,18.76
2022-09-28T19:44:24.604Z,18.73
2022-09-28T19:46:54.805Z,18.72
2022-09-28T19:49:24.078Z,18.65
2022-09-28T19:52:12.877Z,18.67
2022-09-28T19:54:45.053Z,18.64
2022-09-28T19:57:14.623Z,18.69
2022-09-28T19:59:42.893Z,18.74
2022-09-28T20:02:13.394Z,18.75
2022-09-28T20:04:41.808Z,18.69
2022-09-28T20:07:10.161Z,18.70
2022-09-28T20:09:38.514Z,18.69
2022-09-28T20:12:08.234Z,18.46
2022-09-28T20:14:38.204Z,18.67
2022-09-28T20:17:07.871Z,18.64
2022-09-28T20:19:36.179Z,18.60
2022-09-28T20:22:05.037Z,18.58
2022-09-28T20:24:33.740Z,18.59
2022-09-28T20:27:03.002Z,18.56
2022-09-28T20:29:33.511Z,18.59
2022-09-28T20:32:04.162Z,18.59
2022-09-28T20:34:33.624Z,18.56
2022-09-28T20:37:02.246Z,18.54
2022-09-28T20:39:30.620Z,18.54
2022-09-28T20:41:58.869Z,18.50
2022-09-28T20:44:27.180Z,18.47
2022-09-28T20:46:57.406Z,18.45
2022-09-28T20:49:27.250Z,18.34
2022-09-28T20:51:55.626Z,18.33
2022-09-28T20:54:23.898Z,18.22
2022-09-28T20:56:52.354Z,18.27
2022-09-28T20:59:22.977Z,18.27
2022-09-28T21:01:51.435Z,18.28
2022-09-28T21:04:21.245Z,18.27
2022-09-28T21:06:49.684Z,18.25
2022-09-28T21:09:17.928Z,18.20
2022-09-28T21:11:46.829Z,18.20
2022-09-28T21:14:15.508Z,17.88
2022-09-28T21:16:44.355Z,18.26
2022-09-28T21:19:12.737Z,18.25
2022-09-28T21:21:42.886Z,18.19
2022-09-28T21:24:11.157Z,18.17
2022-09-28T21:26:39.441Z,17.98
2022-09-28T21:29:11.773Z,18.09
2022-09-28T21:31:42.604Z,18.08
2022-09-28T21:34:13.881Z,18.05
2022-09-28T21:36:44.887Z,18.03
2022-09-28T21:39:13.320Z,18.01
2022-09-28T21:41:42.236Z,18.02
2022-09-28T21:44:10.946Z,17.91
2022-09-28T21:46:40.104Z,18.06
2022-09-28T21:49:09.798Z,18.03
2022-09-28T21:51:38.746Z,18.00
2022-09-28T21:54:08.576Z,18.01
2022-09-28T21:56:36.880Z,17.92
2022-09-28T21:59:05.151Z,17.71
2022-09-28T22:01:33.544Z,17.86
2022-09-28T22:04:02.238Z,17.84
2022-09-28T22:06:30.586Z,17.83
2022-09-28T22:08:59.333Z,17.79
2022-09-28T22:11:29.843Z,17.64
2022-09-28T22:14:00.244Z,17.76
2022-09-28T22:16:30.815Z,17.61
2022-09-28T22:18:59.673Z,17.69
2022-09-28T22:21:29.605Z,17.63
2022-09-28T22:24:01.003Z,17.63
2022-09-28T22:26:32.937Z,17.58
2022-09-28T22:29:02.839Z,17.56
2022-09-28T22:31:33.022Z,17.15
2022-09-28T22:34:02.538Z,17.53
2022-09-28T22:36:31.184Z,17.47
2022-09-28T22:38:59.833Z,17.42
2022-09-28T22:41:28.692Z,17.41
2022-09-28T22:43:59.114Z,17.38
2022-09-28T22:46:29.313Z,17.35
2022-09-28T22:48:59.964Z,17.34
2022-09-28T22:51:30.185Z,17.33
2022-09-28T22:54:00.106Z,17.30
2022-09-28T22:56:28.819Z,17.26
2022-09-28T22:58:58.924Z,17.26
2022-09-28T23:01:28.775Z,17.26
2022-09-28T23:03:58.205Z,17.27
2022-09-28T23:06:28.409Z,17.20
2022-09-28T23:08:58.171Z,17.26
2022-09-28T23:11:26.848Z,17.24
2022-09-28T23:13:57.168Z,17.19
2022-09-28T23:16:28.061Z,16.90
2022-09-28T23:18:57.296Z,16.71
2022-09-28T23:21:27.649Z,16.90
2022-09-28T23:23:57.812Z,16.89
2022-09-28T23:26:27.448Z,17.14
2022-09-28T23:28:55.804Z,17.15
2022-09-28T23:31:28.083Z,17.16
2022-09-28T23:34:01.605Z,17.15
2022-09-28T23:36:30.101Z,16.69
2022-09-28T23:38:58.668Z,17.13
2022-09-28T23:41:26.954Z,17.00
2022-09-28T23:43:55.213Z,17.11
2022-09-28T23:46:23.575Z,17.11
2022-09-28T23:48:53.396Z,17.15
2022-09-28T23:51:22.852Z,17.20
2022-09-28T23:53:51.073Z,17.22
2022-09-28T23:56:19.338Z,17.24
2022-09-28T23:58:47.608Z,17.25
